Regina — LX2278 — position and weather

sailwx.info

Track history (hours):
 
Tides and Currents Weather Stations Pressure Air Temp Water Temp Dewpoint Dewpoint Depression Visibility Wind Speed Wind Dir Waves Ship Positions

Regina

Last reported at 2018-Jul-11 13:23 UTC. Time now 2018-Jul-16 20:06 UTC.
Position N 44°16' E 028°06'.

Length 110 m.

Type: Tanker. MMSI: 252010424.

Date/timePositionNaut miles runAvg speedWind from/ knotsBaromVisibWave heightAir tempDewpointWater temp
2018-Jul-11 13:23N 44°16' E 028°06'3 7.1
2018-Jul-11 13:00N 44°16' E 028°09'3 6.7
2018-Jul-11 12:30N 44°15' E 028°14'3 6.6
2018-Jul-11 12:00N 44°15' E 028°19'3 6.3
2018-Jul-11 11:30N 44°14' E 028°23'3 5.2
2018-Jul-11 11:00N 44°14' E 028°26'4 5.0
2018-Jul-11 10:12N 44°16' E 028°31'1 5.3
2018-Jul-11 10:00N 44°16' E 028°32'0 1.0
2018-Jul-11 09:30N 44°16' E 028°33'0 0.8
2018-Jul-11 09:00N 44°16' E 028°33'2 3.4
2018-Jul-11 08:30N 44°17' E 028°36'3 5.6
2018-Jul-11 08:00N 44°19' E 028°37'0 0.6
2018-Jul-11 07:30N 44°19' E 028°38'0 0.3
2018-Jul-11 07:00N 44°19' E 028°38'0 0.0
2018-Jul-11 06:30N 44°19' E 028°38'0 0.0
2018-Jul-11 06:00N 44°19' E 028°38'0 0.0
2018-Jul-11 05:30N 44°19' E 028°38'0 0.0
2018-Jul-11 05:00N 44°19' E 028°38'0 0.0
2018-Jul-11 04:30N 44°19' E 028°38'0 0.0
2018-Jul-11 04:00N 44°19' E 028°38'0 0.0
2018-Jul-11 03:30N 44°19' E 028°38'0 0.0
2018-Jul-11 03:00N 44°19' E 028°38'0 0.0
2018-Jul-11 02:30N 44°19' E 028°38'0 0.0
2018-Jul-11 02:00N 44°19' E 028°38'0 0.0
2018-Jul-11 01:30N 44°19' E 028°38'0 0.0
2018-Jul-11 01:00N 44°19' E 028°38'0 0.0
2018-Jul-11 00:30N 44°19' E 028°38'0 0.0
2018-Jul-11 00:00N 44°19' E 028°38'0 0.0
2018-Jul-10 23:30N 44°19' E 028°38'0 0.0
2018-Jul-10 23:00N 44°19' E 028°38'0 0.0
2018-Jul-10 22:30N 44°19' E 028°38'0 0.0
2018-Jul-10 22:00N 44°19' E 028°38'0 0.0
2018-Jul-10 21:30N 44°19' E 028°38'0 0.0
2018-Jul-10 21:00N 44°19' E 028°38'0 0.0
2018-Jul-10 20:30N 44°19' E 028°38'0 0.0
2018-Jul-10 20:00N 44°19' E 028°38'0 0.0
2018-Jul-10 19:30N 44°19' E 028°38'0 0.0
2018-Jul-10 19:00N 44°19' E 028°38'0 0.0
2018-Jul-10 18:30N 44°19' E 028°38'0 0.0
2018-Jul-10 18:00N 44°19' E 028°38'0 0.0
2018-Jul-10 17:30N 44°19' E 028°38'0 0.0
2018-Jul-10 17:00N 44°19' E 028°38'0 0.0
2018-Jul-10 16:30N 44°19' E 028°38'0 0.0
2018-Jul-10 16:00N 44°19' E 028°38'0 0.0
2018-Jul-10 15:30N 44°19' E 028°38'2 3.5
2018-Jul-10 15:00N 44°20' E 028°40'0 0.1
2018-Jul-10 14:30N 44°20' E 028°40'0 0.0
2018-Jul-10 14:00N 44°20' E 028°40'0 0.0
2018-Jul-10 13:30N 44°20' E 028°40'0 0.0
2018-Jul-10 13:00N 44°20' E 028°40'0 0.0
2018-Jul-10 12:30N 44°20' E 028°40'0 0.0
2018-Jul-10 12:00N 44°20' E 028°40'0 0.0
2018-Jul-10 11:30N 44°20' E 028°40'0 0.0
2018-Jul-10 11:00N 44°20' E 028°40'0 0.0
2018-Jul-10 10:30N 44°20' E 028°40'0 0.0
2018-Jul-10 10:00N 44°20' E 028°40'0 0.0
2018-Jul-10 09:29N 44°20' E 028°40'0 0.0
2018-Jul-10 09:00N 44°20' E 028°40'0 0.0
2018-Jul-10 08:30N 44°20' E 028°40'0 0.0
2018-Jul-10 08:00N 44°20' E 028°40'0 0.0
2018-Jul-10 07:30N 44°20' E 028°40'0 0.0
2018-Jul-10 07:00N 44°20' E 028°40'0 0.0
2018-Jul-10 06:30N 44°20' E 028°40'0 0.0
2018-Jul-10 06:00N 44°20' E 028°40'0 0.0
2018-Jul-10 05:30N 44°20' E 028°40'0 0.0
2018-Jul-10 05:00N 44°20' E 028°40'0 0.0
2018-Jul-10 04:30N 44°20' E 028°40'0 0.0
2018-Jul-10 04:00N 44°20' E 028°40'0 0.0
2018-Jul-10 03:30N 44°20' E 028°40'0 0.0
2018-Jul-10 03:00N 44°20' E 028°40'0 0.0
2018-Jul-10 02:30N 44°20' E 028°40'0 0.0
2018-Jul-10 02:00N 44°20' E 028°40'0 0.0
2018-Jul-10 01:30N 44°20' E 028°40'0 0.0
2018-Jul-10 01:00N 44°20' E 028°40'0 0.0
2018-Jul-10 00:30N 44°20' E 028°40'0 0.0
2018-Jul-10 00:00N 44°20' E 028°40'0 0.0
2018-Jul-09 23:30N 44°20' E 028°40'0 0.0
2018-Jul-09 23:00N 44°20' E 028°40'0 0.0
2018-Jul-09 22:30N 44°20' E 028°40'0 0.0
2018-Jul-09 22:00N 44°20' E 028°40'0 0.0
2018-Jul-09 21:30N 44°20' E 028°40'0 0.0
2018-Jul-09 21:00N 44°20' E 028°40'0 0.0
2018-Jul-09 20:30N 44°20' E 028°40'0 0.0
2018-Jul-09 20:00N 44°20' E 028°40'0 0.0
2018-Jul-09 19:30N 44°20' E 028°40'0 0.0
2018-Jul-09 19:00N 44°20' E 028°40'0 0.0
2018-Jul-09 18:30N 44°20' E 028°40'0 0.0
2018-Jul-09 18:00N 44°20' E 028°40'0 0.0
2018-Jul-09 17:30N 44°20' E 028°40'0 0.0
2018-Jul-09 17:00N 44°20' E 028°40'0 0.0
2018-Jul-09 16:30N 44°20' E 028°40'0 0.0
2018-Jul-09 16:00N 44°20' E 028°40'0 0.0
2018-Jul-09 15:30N 44°20' E 028°40'0 0.0
2018-Jul-09 15:00N 44°20' E 028°40'0 0.0
2018-Jul-09 14:30N 44°20' E 028°40'0 0.0
2018-Jul-09 14:00N 44°20' E 028°40'0 0.0
2018-Jul-09 13:30N 44°20' E 028°40'0 0.0
2018-Jul-09 13:00N 44°20' E 028°40'0 0.0
2018-Jul-09 12:30N 44°20' E 028°40'0 0.0
2018-Jul-09 12:00N 44°20' E 028°40'0 0.0
2018-Jul-09 11:30N 44°20' E 028°40'0 0.0
2018-Jul-09 11:00N 44°20' E 028°40'0 0.0
2018-Jul-09 10:30N 44°20' E 028°40'0 0.0
2018-Jul-09 10:00N 44°20' E 028°40'0 0.0
2018-Jul-09 09:30N 44°20' E 028°40'0 0.0
2018-Jul-09 09:00N 44°20' E 028°40'0 0.0
2018-Jul-09 08:30N 44°20' E 028°40'0 0.6
2018-Jul-09 08:00N 44°20' E 028°40'2 3.0
2018-Jul-09 07:30N 44°19' E 028°38'0 0.0
2018-Jul-09 07:00N 44°19' E 028°38'0 0.0
2018-Jul-09 06:30N 44°19' E 028°38'0 0.0
2018-Jul-09 06:00N 44°19' E 028°38'0 0.0
2018-Jul-09 05:30N 44°19' E 028°38'0 0.0
2018-Jul-09 05:00N 44°19' E 028°38'0 0.0
2018-Jul-09 04:30N 44°19' E 028°38'0 0.0
2018-Jul-09 04:00N 44°19' E 028°38'0 0.0
2018-Jul-09 03:30N 44°19' E 028°38'0 0.0
2018-Jul-09 03:00N 44°19' E 028°38'0 0.0
2018-Jul-09 02:30N 44°19' E 028°38'0 0.0
2018-Jul-09 02:00N 44°19' E 028°38'0 0.0
2018-Jul-09 01:30N 44°19' E 028°38'0 0.0
2018-Jul-09 01:00N 44°19' E 028°38'0 0.0
2018-Jul-09 00:30N 44°19' E 028°38'0 0.0
2018-Jul-09 00:00N 44°19' E 028°38'0 0.0
2018-Jul-08 23:30N 44°19' E 028°38'0 0.0
2018-Jul-08 23:00N 44°19' E 028°38'0 0.0
2018-Jul-08 22:30N 44°19' E 028°38'0 0.0
2018-Jul-08 22:00N 44°19' E 028°38'0 0.0
2018-Jul-08 21:30N 44°19' E 028°38'0 0.0
2018-Jul-08 21:00N 44°19' E 028°38'0 0.0
2018-Jul-08 20:30N 44°19' E 028°38'0 0.0
2018-Jul-08 20:00N 44°19' E 028°38'0 0.0
2018-Jul-08 19:30N 44°19' E 028°38'0 0.0
2018-Jul-08 19:00N 44°19' E 028°38'0 0.0
2018-Jul-08 18:30N 44°19' E 028°38'0 0.0
2018-Jul-08 18:00N 44°19' E 028°38'0 0.0
2018-Jul-08 17:30N 44°19' E 028°38'0 0.0
2018-Jul-08 16:59N 44°19' E 028°38'0 0.0
2018-Jul-08 16:30N 44°19' E 028°38'0 0.0
2018-Jul-08 16:00N 44°19' E 028°38'0 0.0
2018-Jul-08 15:30N 44°19' E 028°38'0 0.0
2018-Jul-08 14:59N 44°19' E 028°38'0 0.0
2018-Jul-08 14:30N 44°19' E 028°38'0 0.0
2018-Jul-08 14:00N 44°19' E 028°38'0 0.0
2018-Jul-08 13:30N 44°19' E 028°38'0 0.0
2018-Jul-08 13:00N 44°19' E 028°38'0 0.0
2018-Jul-08 12:29N 44°19' E 028°38'0 0.0
2018-Jul-08 12:00N 44°19' E 028°38'0 0.0
2018-Jul-08 11:29N 44°19' E 028°38'0 0.0
2018-Jul-08 11:00N 44°19' E 028°38'0 0.0
2018-Jul-08 10:30N 44°19' E 028°38'0 0.0
2018-Jul-08 10:00N 44°19' E 028°38'0 0.0
2018-Jul-08 09:30N 44°19' E 028°38'0 0.0
2018-Jul-08 08:59N 44°19' E 028°38'0 0.0
2018-Jul-08 08:30N 44°19' E 028°38'0 0.0
2018-Jul-08 08:00N 44°19' E 028°38'0 0.0
2018-Jul-08 07:30N 44°19' E 028°38'0 0.0
2018-Jul-08 07:00N 44°19' E 028°38'0 0.0
2018-Jul-08 06:30N 44°19' E 028°38'0 0.0
2018-Jul-08 06:00N 44°19' E 028°38'0 0.0
2018-Jul-08 05:30N 44°19' E 028°38'0 0.0
2018-Jul-08 05:00N 44°19' E 028°38'0 0.0
2018-Jul-08 04:30N 44°19' E 028°38'0 0.0
2018-Jul-08 04:00N 44°19' E 028°38'0 0.0
2018-Jul-08 03:30N 44°19' E 028°38'0 0.0
2018-Jul-08 03:00N 44°19' E 028°38'0 0.0
2018-Jul-08 02:30N 44°19' E 028°38'0 0.0
2018-Jul-08 01:59N 44°19' E 028°38'0 0.0
2018-Jul-08 01:30N 44°19' E 028°38'0 0.0
2018-Jul-08 01:00N 44°19' E 028°38'0 0.0
2018-Jul-08 00:30N 44°19' E 028°38'0 0.0
2018-Jul-08 00:00N 44°19' E 028°38'0 0.0
2018-Jul-07 23:30N 44°19' E 028°38'0 0.0
2018-Jul-07 23:00N 44°19' E 028°38'0 0.0
2018-Jul-07 22:29N 44°19' E 028°38'0 0.0
2018-Jul-07 22:00N 44°19' E 028°38'0 0.0
2018-Jul-07 21:30N 44°19' E 028°38'0 0.0
2018-Jul-07 21:00N 44°19' E 028°38'0 0.0
2018-Jul-07 20:30N 44°19' E 028°38'0 0.0
2018-Jul-07 20:00N 44°19' E 028°38'0 0.0
2018-Jul-07 19:30N 44°19' E 028°38'0 0.0
2018-Jul-07 19:00N 44°19' E 028°38'0 0.0
2018-Jul-07 18:30N 44°19' E 028°38'0 0.0
2018-Jul-07 18:00N 44°19' E 028°38'0 0.0
2018-Jul-07 17:30N 44°19' E 028°38'0 0.0
2018-Jul-07 17:00N 44°19' E 028°38'0 0.0
2018-Jul-07 16:30N 44°19' E 028°38'0 0.0
2018-Jul-07 16:00N 44°19' E 028°38'0 0.0
2018-Jul-07 15:30N 44°19' E 028°38'0 0.0
2018-Jul-07 15:00N 44°19' E 028°38'0 0.0
2018-Jul-07 14:30N 44°19' E 028°38'0 0.0
2018-Jul-07 14:00N 44°19' E 028°38'0 0.0
2018-Jul-07 13:30N 44°19' E 028°38'0 0.0
2018-Jul-07 13:00N 44°19' E 028°38'0 0.0
2018-Jul-07 12:16N 44°19' E 028°38'0 0.0
2018-Jul-07 12:00N 44°19' E 028°38'0 0.0
2018-Jul-07 11:30N 44°19' E 028°38'0 0.0
2018-Jul-07 11:00N 44°19' E 028°38'0 0.0
2018-Jul-07 10:30N 44°19' E 028°38'0 0.0
2018-Jul-07 10:00N 44°19' E 028°38'0 0.0
2018-Jul-07 09:30N 44°19' E 028°38'0 0.0
2018-Jul-07 09:00N 44°19' E 028°38'0 0.0
2018-Jul-07 08:30N 44°19' E 028°38'0 0.0
2018-Jul-07 08:00N 44°19' E 028°38'0 0.0
2018-Jul-07 07:30N 44°19' E 028°38'0 0.0
2018-Jul-07 07:00N 44°19' E 028°38'0 0.0
2018-Jul-07 06:30N 44°19' E 028°38'0 0.0
2018-Jul-07 06:00N 44°19' E 028°38'0 0.0
2018-Jul-07 05:26N 44°19' E 028°38'0 0.0
2018-Jul-07 05:00N 44°19' E 028°38'0 0.0
2018-Jul-07 04:30N 44°19' E 028°38'0 0.0
2018-Jul-07 04:00N 44°19' E 028°38'0 0.0
2018-Jul-07 03:30N 44°19' E 028°38'0 0.0
2018-Jul-07 03:00N 44°19' E 028°38'0 0.0
2018-Jul-07 02:30N 44°19' E 028°38'0 0.0
2018-Jul-07 02:00N 44°19' E 028°38'0 0.0
2018-Jul-07 01:30N 44°19' E 028°38'0 0.0
2018-Jul-07 01:00N 44°19' E 028°38'0 0.0
2018-Jul-07 00:30N 44°19' E 028°38'0 0.0
2018-Jul-07 00:00N 44°19' E 028°38'0 0.0
2018-Jul-06 23:30N 44°19' E 028°38'0 0.0
2018-Jul-06 23:00N 44°19' E 028°38'0 0.0
2018-Jul-06 22:30N 44°19' E 028°38'0 0.0
2018-Jul-06 22:00N 44°19' E 028°38'0 0.0
2018-Jul-06 21:30N 44°19' E 028°38'0 0.0
2018-Jul-06 21:00N 44°19' E 028°38'0 0.0
2018-Jul-06 20:30N 44°19' E 028°38'0 0.0
2018-Jul-06 20:00N 44°19' E 028°38'0 0.0
2018-Jul-06 19:30N 44°19' E 028°38'0 0.0
2018-Jul-06 19:00N 44°19' E 028°38'0 0.0
2018-Jul-06 18:30N 44°19' E 028°38'0 0.0
2018-Jul-06 18:00N 44°19' E 028°38'0 0.0
2018-Jul-06 17:30N 44°19' E 028°38'0 0.0
2018-Jul-06 17:00N 44°19' E 028°38'0 0.0
2018-Jul-06 16:30N 44°19' E 028°38'0 0.0
2018-Jul-06 16:00N 44°19' E 028°38'0 0.0
2018-Jul-06 15:30N 44°19' E 028°38'0 0.0
2018-Jul-06 15:00N 44°19' E 028°38'0 0.0
2018-Jul-06 14:30N 44°19' E 028°38'0 0.0
2018-Jul-06 14:00N 44°19' E 028°38'0 0.0
2018-Jul-06 13:30N 44°19' E 028°38'0 0.0
2018-Jul-06 13:00N 44°19' E 028°38'0 0.0
2018-Jul-06 12:30N 44°19' E 028°38'0 0.0
2018-Jul-06 12:00N 44°19' E 028°38'0 0.0
2018-Jul-06 11:30N 44°19' E 028°38'0 0.0
2018-Jul-06 11:00N 44°19' E 028°38'0 0.0
2018-Jul-06 10:30N 44°19' E 028°38'0 0.0
2018-Jul-06 10:00N 44°19' E 028°38'0 0.0
2018-Jul-06 09:30N 44°19' E 028°38'0 0.0
2018-Jul-06 09:00N 44°19' E 028°38'0 0.0
2018-Jul-06 08:30N 44°19' E 028°38'0 0.0
2018-Jul-06 08:00N 44°19' E 028°38'0 0.0
2018-Jul-06 07:30N 44°19' E 028°38'0 0.0
2018-Jul-06 07:00N 44°19' E 028°38'0 0.0
2018-Jul-06 06:30N 44°19' E 028°38'0 0.0
2018-Jul-06 06:00N 44°19' E 028°38'0 0.0
2018-Jul-06 05:30N 44°19' E 028°38'0 0.0
2018-Jul-06 05:00N 44°19' E 028°38'0 0.0
2018-Jul-06 04:30N 44°19' E 028°38'0 0.0
2018-Jul-06 04:00N 44°19' E 028°38'0 0.0
2018-Jul-06 03:30N 44°19' E 028°38'0 0.0
2018-Jul-06 03:00N 44°19' E 028°38'0 0.0
2018-Jul-06 02:30N 44°19' E 028°38'0 0.0
2018-Jul-06 02:00N 44°19' E 028°38'0 0.0
2018-Jul-06 01:30N 44°19' E 028°38'0 0.0
2018-Jul-06 01:00N 44°19' E 028°38'0 0.0
2018-Jul-06 00:30N 44°19' E 028°38'0 0.0
2018-Jul-06 00:00N 44°19' E 028°38'0 0.0
2018-Jul-05 23:30N 44°19' E 028°38'0 0.0
2018-Jul-05 23:00N 44°19' E 028°38'0 0.0
2018-Jul-05 22:30N 44°19' E 028°38'0 0.0
2018-Jul-05 22:00N 44°19' E 028°38'0 0.0
2018-Jul-05 21:30N 44°19' E 028°38'0 0.0
2018-Jul-05 21:00N 44°19' E 028°38'0 0.0
2018-Jul-05 20:30N 44°19' E 028°38'0 0.0
2018-Jul-05 20:00N 44°19' E 028°38'0 0.0
2018-Jul-05 19:29N 44°19' E 028°38'0 0.0
2018-Jul-05 19:00N 44°19' E 028°38'0 0.0
2018-Jul-05 18:30N 44°19' E 028°38'0 0.0
2018-Jul-05 18:00N 44°19' E 028°38'0 0.0
2018-Jul-05 17:30N 44°19' E 028°38'0 0.0
2018-Jul-05 17:00N 44°19' E 028°38'0 0.0
2018-Jul-05 16:30N 44°19' E 028°38'0 0.0
2018-Jul-05 16:00N 44°19' E 028°38'0 0.0
2018-Jul-05 15:30N 44°19' E 028°38'0 0.0
2018-Jul-05 15:00N 44°19' E 028°38'0 0.0
2018-Jul-05 14:30N 44°19' E 028°38'0 0.0
2018-Jul-05 13:30N 44°19' E 028°38'0 0.0
2018-Jul-05 13:00N 44°19' E 028°38'0 0.0
2018-Jul-05 12:30N 44°19' E 028°38'0 0.0
2018-Jul-05 12:00N 44°19' E 028°38'0 0.0
2018-Jul-05 11:30N 44°19' E 028°38'0 0.0
2018-Jul-05 11:00N 44°19' E 028°38'0 0.0
2018-Jul-05 10:30N 44°19' E 028°38'0 0.0
2018-Jul-05 10:00N 44°19' E 028°38'0 0.0
2018-Jul-05 09:30N 44°19' E 028°38'0 0.0
2018-Jul-05 09:00N 44°19' E 028°38'0 0.0
2018-Jul-05 08:30N 44°19' E 028°38'0 0.0
2018-Jul-05 08:00N 44°19' E 028°38'0 0.0
2018-Jul-05 07:30N 44°19' E 028°38'0 0.0
2018-Jul-05 07:00N 44°19' E 028°38'0 0.3
2018-Jul-05 06:30N 44°19' E 028°38'0 0.3
2018-Jul-05 06:00N 44°19' E 028°37'0 0.0
2018-Jul-05 05:30N 44°19' E 028°37'0 0.0
2018-Jul-05 05:00N 44°19' E 028°37'0 0.0
2018-Jul-05 04:30N 44°19' E 028°37'0 0.0
2018-Jul-05 04:00N 44°19' E 028°37'0 0.0
2018-Jul-05 03:30N 44°19' E 028°37'0 0.0
2018-Jul-05 03:00N 44°19' E 028°37'0 0.0
2018-Jul-05 02:30N 44°19' E 028°37'0 0.0
2018-Jul-05 02:00N 44°19' E 028°37'0 0.0
2018-Jul-05 01:30N 44°19' E 028°37'0 0.0
2018-Jul-05 01:00N 44°19' E 028°37'0 0.0
2018-Jul-05 00:30N 44°19' E 028°37'0 0.0
2018-Jul-05 00:00N 44°19' E 028°37'0 0.0
2018-Jul-04 23:30N 44°19' E 028°37'0 0.0
2018-Jul-04 23:00N 44°19' E 028°37'0 0.0
2018-Jul-04 22:30N 44°19' E 028°37'0 0.0
2018-Jul-04 22:00N 44°19' E 028°37'0 0.0
2018-Jul-04 21:30N 44°19' E 028°37'0 0.0
2018-Jul-04 21:00N 44°19' E 028°37'0 0.0
2018-Jul-04 20:30N 44°19' E 028°37'0 0.0
2018-Jul-04 20:00N 44°19' E 028°37'0 0.0
2018-Jul-04 19:30N 44°19' E 028°37'0 0.0
2018-Jul-04 19:00N 44°19' E 028°37'0 0.0
2018-Jul-04 18:30N 44°19' E 028°37'0 0.0
2018-Jul-04 18:00N 44°19' E 028°37'0 0.0
2018-Jul-04 17:30N 44°19' E 028°37'0 0.0
2018-Jul-04 17:00N 44°19' E 028°37'0 0.0
2018-Jul-04 16:30N 44°19' E 028°37'0 0.0
2018-Jul-04 16:00N 44°19' E 028°37'0 0.0
2018-Jul-04 15:30N 44°19' E 028°37'0 0.7
2018-Jul-04 15:00N 44°19' E 028°37'3 5.8
2018-Jul-04 14:30N 44°16' E 028°35'2 3.5
2018-Jul-04 14:00N 44°16' E 028°33'0 0.4
2018-Jul-04 13:30N 44°16' E 028°32'4 4.7
2018-Jul-04 12:38N 44°14' E 028°27'1 6.2
2018-Jul-04 12:29N 44°14' E 028°26'3 5.5
2018-Jul-04 12:00N 44°13' E 028°23'3 6.2
2018-Jul-04 11:29N 44°15' E 028°19'3 6.8
2018-Jul-04 11:00N 44°15' E 028°14'42 4.2
2018-Jul-04 01:02N 44°08' E 027°17'0 0.0
2018-Jul-04 00:58N 44°08' E 027°17'0 0.0
2018-Jul-04 00:26N 44°08' E 027°17'0 0.0
2018-Jul-04 00:00N 44°08' E 027°17'  
Track history (hours):
 
Tides and Currents Weather Stations Pressure Air Temp Water Temp Dewpoint Dewpoint Depression Visibility Wind Speed Wind Dir Waves Ship Positions

Regina

Last reported at 2018-Jul-11 13:23 UTC. Time now 2018-Jul-16 20:06 UTC.
Position N 44°16' E 028°06'.

Length 110 m.

Type: Tanker. MMSI: 252010424.

Date/timePositionNaut miles runAvg speedWind from/ knotsBaromVisibWave heightAir tempDewpointWater temp
2018-Jul-11 13:23N 44°16' E 028°06'3 7.1
2018-Jul-11 13:00N 44°16' E 028°09'3 6.7
2018-Jul-11 12:30N 44°15' E 028°14'3 6.6
2018-Jul-11 12:00N 44°15' E 028°19'3 6.3
2018-Jul-11 11:30N 44°14' E 028°23'3 5.2
2018-Jul-11 11:00N 44°14' E 028°26'4 5.0
2018-Jul-11 10:12N 44°16' E 028°31'1 5.3
2018-Jul-11 10:00N 44°16' E 028°32'0 1.0
2018-Jul-11 09:30N 44°16' E 028°33'0 0.8
2018-Jul-11 09:00N 44°16' E 028°33'2 3.4
2018-Jul-11 08:30N 44°17' E 028°36'3 5.6
2018-Jul-11 08:00N 44°19' E 028°37'0 0.6
2018-Jul-11 07:30N 44°19' E 028°38'0 0.3
2018-Jul-11 07:00N 44°19' E 028°38'0 0.0
2018-Jul-11 06:30N 44°19' E 028°38'0 0.0
2018-Jul-11 06:00N 44°19' E 028°38'0 0.0
2018-Jul-11 05:30N 44°19' E 028°38'0 0.0
2018-Jul-11 05:00N 44°19' E 028°38'0 0.0
2018-Jul-11 04:30N 44°19' E 028°38'0 0.0
2018-Jul-11 04:00N 44°19' E 028°38'0 0.0
2018-Jul-11 03:30N 44°19' E 028°38'0 0.0
2018-Jul-11 03:00N 44°19' E 028°38'0 0.0
2018-Jul-11 02:30N 44°19' E 028°38'0 0.0
2018-Jul-11 02:00N 44°19' E 028°38'0 0.0
2018-Jul-11 01:30N 44°19' E 028°38'0 0.0
2018-Jul-11 01:00N 44°19' E 028°38'0 0.0
2018-Jul-11 00:30N 44°19' E 028°38'0 0.0
2018-Jul-11 00:00N 44°19' E 028°38'0 0.0
2018-Jul-10 23:30N 44°19' E 028°38'0 0.0
2018-Jul-10 23:00N 44°19' E 028°38'0 0.0
2018-Jul-10 22:30N 44°19' E 028°38'0 0.0
2018-Jul-10 22:00N 44°19' E 028°38'0 0.0
2018-Jul-10 21:30N 44°19' E 028°38'0 0.0
2018-Jul-10 21:00N 44°19' E 028°38'0 0.0
2018-Jul-10 20:30N 44°19' E 028°38'0 0.0
2018-Jul-10 20:00N 44°19' E 028°38'0 0.0
2018-Jul-10 19:30N 44°19' E 028°38'0 0.0
2018-Jul-10 19:00N 44°19' E 028°38'0 0.0
2018-Jul-10 18:30N 44°19' E 028°38'0 0.0
2018-Jul-10 18:00N 44°19' E 028°38'0 0.0
2018-Jul-10 17:30N 44°19' E 028°38'0 0.0
2018-Jul-10 17:00N 44°19' E 028°38'0 0.0
2018-Jul-10 16:30N 44°19' E 028°38'0 0.0
2018-Jul-10 16:00N 44°19' E 028°38'0 0.0
2018-Jul-10 15:30N 44°19' E 028°38'2 3.5
2018-Jul-10 15:00N 44°20' E 028°40'0 0.1
2018-Jul-10 14:30N 44°20' E 028°40'0 0.0
2018-Jul-10 14:00N 44°20' E 028°40'0 0.0
2018-Jul-10 13:30N 44°20' E 028°40'0 0.0
2018-Jul-10 13:00N 44°20' E 028°40'0 0.0
2018-Jul-10 12:30N 44°20' E 028°40'0 0.0
2018-Jul-10 12:00N 44°20' E 028°40'0 0.0
2018-Jul-10 11:30N 44°20' E 028°40'0 0.0
2018-Jul-10 11:00N 44°20' E 028°40'0 0.0
2018-Jul-10 10:30N 44°20' E 028°40'0 0.0
2018-Jul-10 10:00N 44°20' E 028°40'0 0.0
2018-Jul-10 09:29N 44°20' E 028°40'0 0.0
2018-Jul-10 09:00N 44°20' E 028°40'0 0.0
2018-Jul-10 08:30N 44°20' E 028°40'0 0.0
2018-Jul-10 08:00N 44°20' E 028°40'0 0.0
2018-Jul-10 07:30N 44°20' E 028°40'0 0.0
2018-Jul-10 07:00N 44°20' E 028°40'0 0.0
2018-Jul-10 06:30N 44°20' E 028°40'0 0.0
2018-Jul-10 06:00N 44°20' E 028°40'0 0.0
2018-Jul-10 05:30N 44°20' E 028°40'0 0.0
2018-Jul-10 05:00N 44°20' E 028°40'0 0.0
2018-Jul-10 04:30N 44°20' E 028°40'0 0.0
2018-Jul-10 04:00N 44°20' E 028°40'0 0.0
2018-Jul-10 03:30N 44°20' E 028°40'0 0.0
2018-Jul-10 03:00N 44°20' E 028°40'0 0.0
2018-Jul-10 02:30N 44°20' E 028°40'0 0.0
2018-Jul-10 02:00N 44°20' E 028°40'0 0.0
2018-Jul-10 01:30N 44°20' E 028°40'0 0.0
2018-Jul-10 01:00N 44°20' E 028°40'0 0.0
2018-Jul-10 00:30N 44°20' E 028°40'0 0.0
2018-Jul-10 00:00N 44°20' E 028°40'0 0.0
2018-Jul-09 23:30N 44°20' E 028°40'0 0.0
2018-Jul-09 23:00N 44°20' E 028°40'0 0.0
2018-Jul-09 22:30N 44°20' E 028°40'0 0.0
2018-Jul-09 22:00N 44°20' E 028°40'0 0.0
2018-Jul-09 21:30N 44°20' E 028°40'0 0.0
2018-Jul-09 21:00N 44°20' E 028°40'0 0.0
2018-Jul-09 20:30N 44°20' E 028°40'0 0.0
2018-Jul-09 20:00N 44°20' E 028°40'0 0.0
2018-Jul-09 19:30N 44°20' E 028°40'0 0.0
2018-Jul-09 19:00N 44°20' E 028°40'0 0.0
2018-Jul-09 18:30N 44°20' E 028°40'0 0.0
2018-Jul-09 18:00N 44°20' E 028°40'0 0.0
2018-Jul-09 17:30N 44°20' E 028°40'0 0.0
2018-Jul-09 17:00N 44°20' E 028°40'0 0.0
2018-Jul-09 16:30N 44°20' E 028°40'0 0.0
2018-Jul-09 16:00N 44°20' E 028°40'0 0.0
2018-Jul-09 15:30N 44°20' E 028°40'0 0.0
2018-Jul-09 15:00N 44°20' E 028°40'0 0.0
2018-Jul-09 14:30N 44°20' E 028°40'0 0.0
2018-Jul-09 14:00N 44°20' E 028°40'0 0.0
2018-Jul-09 13:30N 44°20' E 028°40'0 0.0
2018-Jul-09 13:00N 44°20' E 028°40'0 0.0
2018-Jul-09 12:30N 44°20' E 028°40'0 0.0
2018-Jul-09 12:00N 44°20' E 028°40'0 0.0
2018-Jul-09 11:30N 44°20' E 028°40'0 0.0
2018-Jul-09 11:00N 44°20' E 028°40'0 0.0
2018-Jul-09 10:30N 44°20' E 028°40'0 0.0
2018-Jul-09 10:00N 44°20' E 028°40'0 0.0
2018-Jul-09 09:30N 44°20' E 028°40'0 0.0
2018-Jul-09 09:00N 44°20' E 028°40'0 0.0
2018-Jul-09 08:30N 44°20' E 028°40'0 0.6
2018-Jul-09 08:00N 44°20' E 028°40'2 3.0
2018-Jul-09 07:30N 44°19' E 028°38'0 0.0
2018-Jul-09 07:00N 44°19' E 028°38'0 0.0
2018-Jul-09 06:30N 44°19' E 028°38'0 0.0
2018-Jul-09 06:00N 44°19' E 028°38'0 0.0
2018-Jul-09 05:30N 44°19' E 028°38'0 0.0
2018-Jul-09 05:00N 44°19' E 028°38'0 0.0
2018-Jul-09 04:30N 44°19' E 028°38'0 0.0
2018-Jul-09 04:00N 44°19' E 028°38'0 0.0
2018-Jul-09 03:30N 44°19' E 028°38'0 0.0
2018-Jul-09 03:00N 44°19' E 028°38'0 0.0
2018-Jul-09 02:30N 44°19' E 028°38'0 0.0
2018-Jul-09 02:00N 44°19' E 028°38'0 0.0
2018-Jul-09 01:30N 44°19' E 028°38'0 0.0
2018-Jul-09 01:00N 44°19' E 028°38'0 0.0
2018-Jul-09 00:30N 44°19' E 028°38'0 0.0
2018-Jul-09 00:00N 44°19' E 028°38'0 0.0
2018-Jul-08 23:30N 44°19' E 028°38'0 0.0
2018-Jul-08 23:00N 44°19' E 028°38'0 0.0
2018-Jul-08 22:30N 44°19' E 028°38'0 0.0
2018-Jul-08 22:00N 44°19' E 028°38'0 0.0
2018-Jul-08 21:30N 44°19' E 028°38'0 0.0
2018-Jul-08 21:00N 44°19' E 028°38'0 0.0
2018-Jul-08 20:30N 44°19' E 028°38'0 0.0
2018-Jul-08 20:00N 44°19' E 028°38'0 0.0
2018-Jul-08 19:30N 44°19' E 028°38'0 0.0
2018-Jul-08 19:00N 44°19' E 028°38'0 0.0
2018-Jul-08 18:30N 44°19' E 028°38'0 0.0
2018-Jul-08 18:00N 44°19' E 028°38'0 0.0
2018-Jul-08 17:30N 44°19' E 028°38'0 0.0
2018-Jul-08 16:59N 44°19' E 028°38'0 0.0
2018-Jul-08 16:30N 44°19' E 028°38'0 0.0
2018-Jul-08 16:00N 44°19' E 028°38'0 0.0
2018-Jul-08 15:30N 44°19' E 028°38'0 0.0
2018-Jul-08 14:59N 44°19' E 028°38'0 0.0
2018-Jul-08 14:30N 44°19' E 028°38'0 0.0
2018-Jul-08 14:00N 44°19' E 028°38'0 0.0
2018-Jul-08 13:30N 44°19' E 028°38'0 0.0
2018-Jul-08 13:00N 44°19' E 028°38'0 0.0
2018-Jul-08 12:29N 44°19' E 028°38'0 0.0
2018-Jul-08 12:00N 44°19' E 028°38'0 0.0
2018-Jul-08 11:29N 44°19' E 028°38'0 0.0
2018-Jul-08 11:00N 44°19' E 028°38'0 0.0
2018-Jul-08 10:30N 44°19' E 028°38'0 0.0
2018-Jul-08 10:00N 44°19' E 028°38'0 0.0
2018-Jul-08 09:30N 44°19' E 028°38'0 0.0
2018-Jul-08 08:59N 44°19' E 028°38'0 0.0
2018-Jul-08 08:30N 44°19' E 028°38'0 0.0
2018-Jul-08 08:00N 44°19' E 028°38'0 0.0
2018-Jul-08 07:30N 44°19' E 028°38'0 0.0
2018-Jul-08 07:00N 44°19' E 028°38'0 0.0
2018-Jul-08 06:30N 44°19' E 028°38'0 0.0
2018-Jul-08 06:00N 44°19' E 028°38'0 0.0
2018-Jul-08 05:30N 44°19' E 028°38'0 0.0
2018-Jul-08 05:00N 44°19' E 028°38'0 0.0
2018-Jul-08 04:30N 44°19' E 028°38'0 0.0
2018-Jul-08 04:00N 44°19' E 028°38'0 0.0
2018-Jul-08 03:30N 44°19' E 028°38'0 0.0
2018-Jul-08 03:00N 44°19' E 028°38'0 0.0
2018-Jul-08 02:30N 44°19' E 028°38'0 0.0
2018-Jul-08 01:59N 44°19' E 028°38'0 0.0
2018-Jul-08 01:30N 44°19' E 028°38'0 0.0
2018-Jul-08 01:00N 44°19' E 028°38'0 0.0
2018-Jul-08 00:30N 44°19' E 028°38'0 0.0
2018-Jul-08 00:00N 44°19' E 028°38'0 0.0
2018-Jul-07 23:30N 44°19' E 028°38'0 0.0
2018-Jul-07 23:00N 44°19' E 028°38'0 0.0
2018-Jul-07 22:29N 44°19' E 028°38'0 0.0
2018-Jul-07 22:00N 44°19' E 028°38'0 0.0
2018-Jul-07 21:30N 44°19' E 028°38'0 0.0
2018-Jul-07 21:00N 44°19' E 028°38'0 0.0
2018-Jul-07 20:30N 44°19' E 028°38'0 0.0
2018-Jul-07 20:00N 44°19' E 028°38'0 0.0
2018-Jul-07 19:30N 44°19' E 028°38'0 0.0
2018-Jul-07 19:00N 44°19' E 028°38'0 0.0
2018-Jul-07 18:30N 44°19' E 028°38'0 0.0
2018-Jul-07 18:00N 44°19' E 028°38'0 0.0
2018-Jul-07 17:30N 44°19' E 028°38'0 0.0
2018-Jul-07 17:00N 44°19' E 028°38'0 0.0
2018-Jul-07 16:30N 44°19' E 028°38'0 0.0
2018-Jul-07 16:00N 44°19' E 028°38'0 0.0
2018-Jul-07 15:30N 44°19' E 028°38'0 0.0
2018-Jul-07 15:00N 44°19' E 028°38'0 0.0
2018-Jul-07 14:30N 44°19' E 028°38'0 0.0
2018-Jul-07 14:00N 44°19' E 028°38'0 0.0
2018-Jul-07 13:30N 44°19' E 028°38'0 0.0
2018-Jul-07 13:00N 44°19' E 028°38'0 0.0
2018-Jul-07 12:16N 44°19' E 028°38'0 0.0
2018-Jul-07 12:00N 44°19' E 028°38'0 0.0
2018-Jul-07 11:30N 44°19' E 028°38'0 0.0
2018-Jul-07 11:00N 44°19' E 028°38'0 0.0
2018-Jul-07 10:30N 44°19' E 028°38'0 0.0
2018-Jul-07 10:00N 44°19' E 028°38'0 0.0
2018-Jul-07 09:30N 44°19' E 028°38'0 0.0
2018-Jul-07 09:00N 44°19' E 028°38'0 0.0
2018-Jul-07 08:30N 44°19' E 028°38'0 0.0
2018-Jul-07 08:00N 44°19' E 028°38'0 0.0
2018-Jul-07 07:30N 44°19' E 028°38'0 0.0
2018-Jul-07 07:00N 44°19' E 028°38'0 0.0
2018-Jul-07 06:30N 44°19' E 028°38'0 0.0
2018-Jul-07 06:00N 44°19' E 028°38'0 0.0
2018-Jul-07 05:26N 44°19' E 028°38'0 0.0
2018-Jul-07 05:00N 44°19' E 028°38'0 0.0
2018-Jul-07 04:30N 44°19' E 028°38'0 0.0
2018-Jul-07 04:00N 44°19' E 028°38'0 0.0
2018-Jul-07 03:30N 44°19' E 028°38'0 0.0
2018-Jul-07 03:00N 44°19' E 028°38'0 0.0
2018-Jul-07 02:30N 44°19' E 028°38'0 0.0
2018-Jul-07 02:00N 44°19' E 028°38'0 0.0
2018-Jul-07 01:30N 44°19' E 028°38'0 0.0
2018-Jul-07 01:00N 44°19' E 028°38'0 0.0
2018-Jul-07 00:30N 44°19' E 028°38'0 0.0
2018-Jul-07 00:00N 44°19' E 028°38'0 0.0
2018-Jul-06 23:30N 44°19' E 028°38'0 0.0
2018-Jul-06 23:00N 44°19' E 028°38'0 0.0
2018-Jul-06 22:30N 44°19' E 028°38'0 0.0
2018-Jul-06 22:00N 44°19' E 028°38'0 0.0
2018-Jul-06 21:30N 44°19' E 028°38'0 0.0
2018-Jul-06 21:00N 44°19' E 028°38'0 0.0
2018-Jul-06 20:30N 44°19' E 028°38'0 0.0
2018-Jul-06 20:00N 44°19' E 028°38'0 0.0
2018-Jul-06 19:30N 44°19' E 028°38'0 0.0
2018-Jul-06 19:00N 44°19' E 028°38'0 0.0
2018-Jul-06 18:30N 44°19' E 028°38'0 0.0
2018-Jul-06 18:00N 44°19' E 028°38'0 0.0
2018-Jul-06 17:30N 44°19' E 028°38'0 0.0
2018-Jul-06 17:00N 44°19' E 028°38'0 0.0
2018-Jul-06 16:30N 44°19' E 028°38'0 0.0
2018-Jul-06 16:00N 44°19' E 028°38'0 0.0
2018-Jul-06 15:30N 44°19' E 028°38'0 0.0
2018-Jul-06 15:00N 44°19' E 028°38'0 0.0
2018-Jul-06 14:30N 44°19' E 028°38'0 0.0
2018-Jul-06 14:00N 44°19' E 028°38'0 0.0
2018-Jul-06 13:30N 44°19' E 028°38'0 0.0
2018-Jul-06 13:00N 44°19' E 028°38'0 0.0
2018-Jul-06 12:30N 44°19' E 028°38'0 0.0
2018-Jul-06 12:00N 44°19' E 028°38'0 0.0
2018-Jul-06 11:30N 44°19' E 028°38'0 0.0
2018-Jul-06 11:00N 44°19' E 028°38'0 0.0
2018-Jul-06 10:30N 44°19' E 028°38'0 0.0
2018-Jul-06 10:00N 44°19' E 028°38'0 0.0
2018-Jul-06 09:30N 44°19' E 028°38'0 0.0
2018-Jul-06 09:00N 44°19' E 028°38'0 0.0
2018-Jul-06 08:30N 44°19' E 028°38'0 0.0
2018-Jul-06 08:00N 44°19' E 028°38'0 0.0
2018-Jul-06 07:30N 44°19' E 028°38'0 0.0
2018-Jul-06 07:00N 44°19' E 028°38'0 0.0
2018-Jul-06 06:30N 44°19' E 028°38'0 0.0
2018-Jul-06 06:00N 44°19' E 028°38'0 0.0
2018-Jul-06 05:30N 44°19' E 028°38'0 0.0
2018-Jul-06 05:00N 44°19' E 028°38'0 0.0
2018-Jul-06 04:30N 44°19' E 028°38'0 0.0
2018-Jul-06 04:00N 44°19' E 028°38'0 0.0
2018-Jul-06 03:30N 44°19' E 028°38'0 0.0
2018-Jul-06 03:00N 44°19' E 028°38'0 0.0
2018-Jul-06 02:30N 44°19' E 028°38'0 0.0
2018-Jul-06 02:00N 44°19' E 028°38'0 0.0
2018-Jul-06 01:30N 44°19' E 028°38'0 0.0
2018-Jul-06 01:00N 44°19' E 028°38'0 0.0
2018-Jul-06 00:30N 44°19' E 028°38'0 0.0
2018-Jul-06 00:00N 44°19' E 028°38'0 0.0
2018-Jul-05 23:30N 44°19' E 028°38'0 0.0
2018-Jul-05 23:00N 44°19' E 028°38'0 0.0
2018-Jul-05 22:30N 44°19' E 028°38'0 0.0
2018-Jul-05 22:00N 44°19' E 028°38'0 0.0
2018-Jul-05 21:30N 44°19' E 028°38'0 0.0
2018-Jul-05 21:00N 44°19' E 028°38'0 0.0
2018-Jul-05 20:30N 44°19' E 028°38'0 0.0
2018-Jul-05 20:00N 44°19' E 028°38'0 0.0
2018-Jul-05 19:29N 44°19' E 028°38'0 0.0
2018-Jul-05 19:00N 44°19' E 028°38'0 0.0
2018-Jul-05 18:30N 44°19' E 028°38'0 0.0
2018-Jul-05 18:00N 44°19' E 028°38'0 0.0
2018-Jul-05 17:30N 44°19' E 028°38'0 0.0
2018-Jul-05 17:00N 44°19' E 028°38'0 0.0
2018-Jul-05 16:30N 44°19' E 028°38'0 0.0
2018-Jul-05 16:00N 44°19' E 028°38'0 0.0
2018-Jul-05 15:30N 44°19' E 028°38'0 0.0
2018-Jul-05 15:00N 44°19' E 028°38'0 0.0
2018-Jul-05 14:30N 44°19' E 028°38'0 0.0
2018-Jul-05 13:30N 44°19' E 028°38'0 0.0
2018-Jul-05 13:00N 44°19' E 028°38'0 0.0
2018-Jul-05 12:30N 44°19' E 028°38'0 0.0
2018-Jul-05 12:00N 44°19' E 028°38'0 0.0
2018-Jul-05 11:30N 44°19' E 028°38'0 0.0
2018-Jul-05 11:00N 44°19' E 028°38'0 0.0
2018-Jul-05 10:30N 44°19' E 028°38'0 0.0
2018-Jul-05 10:00N 44°19' E 028°38'0 0.0
2018-Jul-05 09:30N 44°19' E 028°38'0 0.0
2018-Jul-05 09:00N 44°19' E 028°38'0 0.0
2018-Jul-05 08:30N 44°19' E 028°38'0 0.0
2018-Jul-05 08:00N 44°19' E 028°38'0 0.0
2018-Jul-05 07:30N 44°19' E 028°38'0 0.0
2018-Jul-05 07:00N 44°19' E 028°38'0 0.3
2018-Jul-05 06:30N 44°19' E 028°38'0 0.3
2018-Jul-05 06:00N 44°19' E 028°37'0 0.0
2018-Jul-05 05:30N 44°19' E 028°37'0 0.0
2018-Jul-05 05:00N 44°19' E 028°37'0 0.0
2018-Jul-05 04:30N 44°19' E 028°37'0 0.0
2018-Jul-05 04:00N 44°19' E 028°37'0 0.0
2018-Jul-05 03:30N 44°19' E 028°37'0 0.0
2018-Jul-05 03:00N 44°19' E 028°37'0 0.0
2018-Jul-05 02:30N 44°19' E 028°37'0 0.0
2018-Jul-05 02:00N 44°19' E 028°37'0 0.0
2018-Jul-05 01:30N 44°19' E 028°37'0 0.0
2018-Jul-05 01:00N 44°19' E 028°37'0 0.0
2018-Jul-05 00:30N 44°19' E 028°37'0 0.0
2018-Jul-05 00:00N 44°19' E 028°37'0 0.0
2018-Jul-04 23:30N 44°19' E 028°37'0 0.0
2018-Jul-04 23:00N 44°19' E 028°37'0 0.0
2018-Jul-04 22:30N 44°19' E 028°37'0 0.0
2018-Jul-04 22:00N 44°19' E 028°37'0 0.0
2018-Jul-04 21:30N 44°19' E 028°37'0 0.0
2018-Jul-04 21:00N 44°19' E 028°37'0 0.0
2018-Jul-04 20:30N 44°19' E 028°37'0 0.0
2018-Jul-04 20:00N 44°19' E 028°37'0 0.0
2018-Jul-04 19:30N 44°19' E 028°37'0 0.0
2018-Jul-04 19:00N 44°19' E 028°37'0 0.0
2018-Jul-04 18:30N 44°19' E 028°37'0 0.0
2018-Jul-04 18:00N 44°19' E 028°37'0 0.0
2018-Jul-04 17:30N 44°19' E 028°37'0 0.0
2018-Jul-04 17:00N 44°19' E 028°37'0 0.0
2018-Jul-04 16:30N 44°19' E 028°37'0 0.0
2018-Jul-04 16:00N 44°19' E 028°37'0 0.0
2018-Jul-04 15:30N 44°19' E 028°37'0 0.7
2018-Jul-04 15:00N 44°19' E 028°37'3 5.8
2018-Jul-04 14:30N 44°16' E 028°35'2 3.5
2018-Jul-04 14:00N 44°16' E 028°33'0 0.4
2018-Jul-04 13:30N 44°16' E 028°32'4 4.7
2018-Jul-04 12:38N 44°14' E 028°27'1 6.2
2018-Jul-04 12:29N 44°14' E 028°26'3 5.5
2018-Jul-04 12:00N 44°13' E 028°23'3 6.2
2018-Jul-04 11:29N 44°15' E 028°19'3 6.8
2018-Jul-04 11:00N 44°15' E 028°14'42 4.2
2018-Jul-04 01:02N 44°08' E 027°17'0 0.0
2018-Jul-04 00:58N 44°08' E 027°17'0 0.0
2018-Jul-04 00:26N 44°08' E 027°17'0 0.0
2018-Jul-04 00:00N 44°08' E 027°17'  

Dump ship's entire track history